sensor_id;sensor_type;location;lat;lon;timestamp;P1;durP1;ratioP1;P2;durP2;ratioP2
37633;SDS011;32048;49.902;22.508;2022-12-11T00:00:21;16.97;;;8.23;;
37633;SDS011;32048;49.902;22.508;2022-12-11T00:03:08;16.97;;;8.13;;
37633;SDS011;32048;49.902;22.508;2022-12-11T00:05:41;15.90;;;8.17;;
37633;SDS011;32048;49.902;22.508;2022-12-11T00:08:09;11.53;;;7.77;;
37633;SDS011;32048;49.902;22.508;2022-12-11T00:10:37;13.47;;;6.80;;
37633;SDS011;32048;49.902;22.508;2022-12-11T00:13:04;16.03;;;7.97;;
37633;SDS011;32048;49.902;22.508;2022-12-11T00:15:31;14.53;;;7.40;;
37633;SDS011;32048;49.902;22.508;2022-12-11T00:17:58;12.87;;;6.77;;
37633;SDS011;32048;49.902;22.508;2022-12-11T00:20:25;14.27;;;7.17;;
37633;SDS011;32048;49.902;22.508;2022-12-11T00:22:52;12.17;;;6.30;;
37633;SDS011;32048;49.902;22.508;2022-12-11T00:25:19;10.20;;;6.57;;
37633;SDS011;32048;49.902;22.508;2022-12-11T00:27:46;15.27;;;7.27;;
37633;SDS011;32048;49.902;22.508;2022-12-11T00:30:13;11.80;;;6.93;;
37633;SDS011;32048;49.902;22.508;2022-12-11T00:32:40;12.93;;;7.57;;
37633;SDS011;32048;49.902;22.508;2022-12-11T00:35:08;11.50;;;6.57;;
37633;SDS011;32048;49.902;22.508;2022-12-11T00:37:36;12.10;;;6.83;;
37633;SDS011;32048;49.902;22.508;2022-12-11T00:40:03;13.87;;;7.13;;
37633;SDS011;32048;49.902;22.508;2022-12-11T00:42:31;12.43;;;7.60;;
37633;SDS011;32048;49.902;22.508;2022-12-11T00:44:57;10.70;;;6.20;;
37633;SDS011;32048;49.902;22.508;2022-12-11T00:47:24;12.60;;;7.33;;
37633;SDS011;32048;49.902;22.508;2022-12-11T00:49:51;13.20;;;7.10;;
37633;SDS011;32048;49.902;22.508;2022-12-11T00:52:18;14.50;;;7.73;;
37633;SDS011;32048;49.902;22.508;2022-12-11T00:54:45;12.67;;;7.60;;
37633;SDS011;32048;49.902;22.508;2022-12-11T00:57:12;13.10;;;6.80;;
37633;SDS011;32048;49.902;22.508;2022-12-11T00:59:39;12.17;;;6.57;;
37633;SDS011;32048;49.902;22.508;2022-12-11T01:02:06;15.97;;;6.83;;
37633;SDS011;32048;49.902;22.508;2022-12-11T01:04:34;13.73;;;7.10;;
37633;SDS011;32048;49.902;22.508;2022-12-11T01:07:02;8.15;;;5.82;;
37633;SDS011;32048;49.902;22.508;2022-12-11T01:09:29;13.53;;;6.17;;
37633;SDS011;32048;49.902;22.508;2022-12-11T01:12:15;10.70;;;6.27;;
37633;SDS011;32048;49.902;22.508;2022-12-11T01:14:41;11.17;;;6.53;;
37633;SDS011;32048;49.902;22.508;2022-12-11T01:17:08;16.40;;;7.33;;
37633;SDS011;32048;49.902;22.508;2022-12-11T01:19:36;10.97;;;6.40;;
37633;SDS011;32048;49.902;22.508;2022-12-11T01:22:03;14.37;;;6.93;;
37633;SDS011;32048;49.902;22.508;2022-12-11T01:24:30;14.47;;;6.70;;
37633;SDS011;32048;49.902;22.508;2022-12-11T01:26:57;12.70;;;7.40;;
37633;SDS011;32048;49.902;22.508;2022-12-11T01:29:24;13.43;;;6.93;;
37633;SDS011;32048;49.902;22.508;2022-12-11T01:31:51;12.67;;;7.33;;
37633;SDS011;32048;49.902;22.508;2022-12-11T01:34:18;11.50;;;6.70;;
37633;SDS011;32048;49.902;22.508;2022-12-11T01:36:45;12.80;;;6.90;;
37633;SDS011;32048;49.902;22.508;2022-12-11T01:39:12;13.03;;;7.10;;
37633;SDS011;32048;49.902;22.508;2022-12-11T01:41:39;14.90;;;8.17;;
37633;SDS011;32048;49.902;22.508;2022-12-11T01:45:00;13.37;;;7.33;;
37633;SDS011;32048;49.902;22.508;2022-12-11T01:46:53;14.93;;;7.40;;
37633;SDS011;32048;49.902;22.508;2022-12-11T01:49:22;14.48;;;6.82;;
37633;SDS011;32048;49.902;22.508;2022-12-11T01:52:02;14.53;;;6.87;;
37633;SDS011;32048;49.902;22.508;2022-12-11T01:57:09;14.07;;;5.83;;
37633;SDS011;32048;49.902;22.508;2022-12-11T01:59:39;12.60;;;5.67;;
37633;SDS011;32048;49.902;22.508;2022-12-11T02:02:19;12.60;;;6.00;;
37633;SDS011;32048;49.902;22.508;2022-12-11T02:04:52;13.90;;;6.20;;
37633;SDS011;32048;49.902;22.508;2022-12-11T02:07:19;9.23;;;4.50;;
37633;SDS011;32048;49.902;22.508;2022-12-11T02:09:46;10.70;;;4.67;;
37633;SDS011;32048;49.902;22.508;2022-12-11T02:12:16;6.20;;;4.30;;
37633;SDS011;32048;49.902;22.508;2022-12-11T02:20:35;9.43;;;4.53;;
37633;SDS011;32048;49.902;22.508;2022-12-11T02:31:24;8.30;;;4.83;;
37633;SDS011;32048;49.902;22.508;2022-12-11T02:34:21;9.20;;;5.10;;
37633;SDS011;32048;49.902;22.508;2022-12-11T02:36:56;8.27;;;4.77;;
37633;SDS011;32048;49.902;22.508;2022-12-11T02:39:28;7.47;;;4.00;;
37633;SDS011;32048;49.902;22.508;2022-12-11T02:41:58;11.77;;;6.20;;
37633;SDS011;32048;49.902;22.508;2022-12-11T02:44:28;9.20;;;4.95;;
37633;SDS011;32048;49.902;22.508;2022-12-11T02:46:58;10.13;;;5.13;;
37633;SDS011;32048;49.902;22.508;2022-12-11T02:49:29;7.80;;;4.17;;
37633;SDS011;32048;49.902;22.508;2022-12-11T02:51:57;8.43;;;4.53;;
37633;SDS011;32048;49.902;22.508;2022-12-11T02:54:29;8.07;;;4.77;;
37633;SDS011;32048;49.902;22.508;2022-12-11T02:57:03;11.03;;;5.37;;
37633;SDS011;32048;49.902;22.508;2022-12-11T02:59:43;10.07;;;4.87;;
37633;SDS011;32048;49.902;22.508;2022-12-11T03:04:40;8.18;;;5.03;;
37633;SDS011;32048;49.902;22.508;2022-12-11T03:07:13;8.93;;;4.70;;
37633;SDS011;32048;49.902;22.508;2022-12-11T03:09:43;10.43;;;5.00;;
37633;SDS011;32048;49.902;22.508;2022-12-11T03:14:43;8.87;;;4.87;;
37633;SDS011;32048;49.902;22.508;2022-12-11T03:17:24;8.60;;;5.00;;
37633;SDS011;32048;49.902;22.508;2022-12-11T03:20:20;9.70;;;5.47;;
37633;SDS011;32048;49.902;22.508;2022-12-11T03:22:52;11.73;;;5.70;;
37633;SDS011;32048;49.902;22.508;2022-12-11T03:25:46;11.63;;;5.83;;
37633;SDS011;32048;49.902;22.508;2022-12-11T03:28:18;12.40;;;6.03;;
37633;SDS011;32048;49.902;22.508;2022-12-11T03:31:02;11.47;;;6.13;;
37633;SDS011;32048;49.902;22.508;2022-12-11T03:33:36;12.97;;;6.20;;
37633;SDS011;32048;49.902;22.508;2022-12-11T03:36:16;11.07;;;6.27;;
37633;SDS011;32048;49.902;22.508;2022-12-11T03:38:50;10.23;;;6.07;;
37633;SDS011;32048;49.902;22.508;2022-12-11T03:41:22;11.17;;;6.07;;
37633;SDS011;32048;49.902;22.508;2022-12-11T03:43:52;10.27;;;5.27;;
37633;SDS011;32048;49.902;22.508;2022-12-11T03:49:22;10.00;;;5.72;;
37633;SDS011;32048;49.902;22.508;2022-12-11T03:51:53;8.03;;;5.03;;
37633;SDS011;32048;49.902;22.508;2022-12-11T03:54:22;11.70;;;5.63;;
37633;SDS011;32048;49.902;22.508;2022-12-11T03:56:51;9.23;;;4.80;;
37633;SDS011;32048;49.902;22.508;2022-12-11T03:59:21;9.30;;;5.37;;
37633;SDS011;32048;49.902;22.508;2022-12-11T04:01:48;12.07;;;5.73;;
37633;SDS011;32048;49.902;22.508;2022-12-11T04:04:15;10.97;;;5.27;;
37633;SDS011;32048;49.902;22.508;2022-12-11T04:06:43;10.00;;;5.70;;
37633;SDS011;32048;49.902;22.508;2022-12-11T04:09:10;12.73;;;5.33;;
37633;SDS011;32048;49.902;22.508;2022-12-11T04:11:37;9.97;;;5.47;;
37633;SDS011;32048;49.902;22.508;2022-12-11T04:14:06;11.90;;;5.30;;
37633;SDS011;32048;49.902;22.508;2022-12-11T04:19:21;9.23;;;5.23;;
37633;SDS011;32048;49.902;22.508;2022-12-11T04:22:09;10.13;;;5.57;;
37633;SDS011;32048;49.902;22.508;2022-12-11T04:24:55;10.43;;;5.00;;
37633;SDS011;32048;49.902;22.508;2022-12-11T04:27:23;11.77;;;6.37;;
37633;SDS011;32048;49.902;22.508;2022-12-11T04:30:11;9.37;;;5.30;;
37633;SDS011;32048;49.902;22.508;2022-12-11T04:32:41;10.83;;;5.23;;
37633;SDS011;32048;49.902;22.508;2022-12-11T04:35:08;11.73;;;5.47;;
37633;SDS011;32048;49.902;22.508;2022-12-11T04:37:37;10.50;;;5.32;;
37633;SDS011;32048;49.902;22.508;2022-12-11T04:40:05;10.40;;;4.60;;
37633;SDS011;32048;49.902;22.508;2022-12-11T04:42:34;10.33;;;4.90;;
37633;SDS011;32048;49.902;22.508;2022-12-11T04:45:02;11.50;;;5.23;;
37633;SDS011;32048;49.902;22.508;2022-12-11T04:47:30;11.48;;;5.30;;
37633;SDS011;32048;49.902;22.508;2022-12-11T04:49:57;7.30;;;4.40;;
37633;SDS011;32048;49.902;22.508;2022-12-11T04:52:24;11.50;;;5.43;;
37633;SDS011;32048;49.902;22.508;2022-12-11T04:54:51;9.57;;;4.53;;
37633;SDS011;32048;49.902;22.508;2022-12-11T04:57:18;9.73;;;4.93;;
37633;SDS011;32048;49.902;22.508;2022-12-11T04:59:47;9.07;;;4.93;;
37633;SDS011;32048;49.902;22.508;2022-12-11T05:02:15;9.77;;;5.17;;
37633;SDS011;32048;49.902;22.508;2022-12-11T05:04:42;11.27;;;5.27;;
37633;SDS011;32048;49.902;22.508;2022-12-11T05:07:09;8.97;;;4.83;;
37633;SDS011;32048;49.902;22.508;2022-12-11T05:09:36;9.63;;;5.07;;
37633;SDS011;32048;49.902;22.508;2022-12-11T05:12:03;9.23;;;5.17;;
37633;SDS011;32048;49.902;22.508;2022-12-11T05:14:30;12.67;;;6.10;;
37633;SDS011;32048;49.902;22.508;2022-12-11T05:16:58;8.57;;;4.90;;
37633;SDS011;32048;49.902;22.508;2022-12-11T05:19:25;9.43;;;5.00;;
37633;SDS011;32048;49.902;22.508;2022-12-11T05:21:52;11.23;;;5.50;;
37633;SDS011;32048;49.902;22.508;2022-12-11T05:24:19;9.50;;;5.10;;
37633;SDS011;32048;49.902;22.508;2022-12-11T05:26:46;8.63;;;4.83;;
37633;SDS011;32048;49.902;22.508;2022-12-11T05:29:13;15.80;;;6.43;;
37633;SDS011;32048;49.902;22.508;2022-12-11T05:31:40;13.03;;;6.70;;
37633;SDS011;32048;49.902;22.508;2022-12-11T05:34:07;13.50;;;6.83;;
37633;SDS011;32048;49.902;22.508;2022-12-11T05:36:35;13.77;;;6.57;;
37633;SDS011;32048;49.902;22.508;2022-12-11T05:39:02;11.50;;;6.40;;
37633;SDS011;32048;49.902;22.508;2022-12-11T05:41:30;17.87;;;8.13;;
37633;SDS011;32048;49.902;22.508;2022-12-11T05:43:58;11.57;;;6.32;;
37633;SDS011;32048;49.902;22.508;2022-12-11T05:46:27;11.97;;;6.17;;
37633;SDS011;32048;49.902;22.508;2022-12-11T05:48:59;9.47;;;5.10;;
37633;SDS011;32048;49.902;22.508;2022-12-11T05:51:28;9.97;;;6.07;;
37633;SDS011;32048;49.902;22.508;2022-12-11T05:53:55;8.43;;;4.03;;
37633;SDS011;32048;49.902;22.508;2022-12-11T05:56:24;11.27;;;5.80;;
37633;SDS011;32048;49.902;22.508;2022-12-11T05:58:53;12.23;;;5.93;;
37633;SDS011;32048;49.902;22.508;2022-12-11T06:04:03;9.67;;;5.17;;
37633;SDS011;32048;49.902;22.508;2022-12-11T06:06:32;11.47;;;5.80;;
37633;SDS011;32048;49.902;22.508;2022-12-11T06:09:00;8.97;;;5.63;;
37633;SDS011;32048;49.902;22.508;2022-12-11T06:11:28;10.03;;;5.60;;
37633;SDS011;32048;49.902;22.508;2022-12-11T06:13:56;9.55;;;5.00;;
37633;SDS011;32048;49.902;22.508;2022-12-11T06:16:24;8.67;;;4.87;;
37633;SDS011;32048;49.902;22.508;2022-12-11T06:18:51;8.13;;;4.77;;
37633;SDS011;32048;49.902;22.508;2022-12-11T06:21:28;11.57;;;5.63;;
37633;SDS011;32048;49.902;22.508;2022-12-11T06:23:57;8.90;;;5.07;;
37633;SDS011;32048;49.902;22.508;2022-12-11T06:26:28;10.23;;;5.10;;
37633;SDS011;32048;49.902;22.508;2022-12-11T06:28:55;12.90;;;5.50;;
37633;SDS011;32048;49.902;22.508;2022-12-11T06:31:22;11.33;;;5.70;;
37633;SDS011;32048;49.902;22.508;2022-12-11T06:33:49;7.80;;;4.47;;
37633;SDS011;32048;49.902;22.508;2022-12-11T06:36:17;1370.67;;;514.40;;
37633;SDS011;32048;49.902;22.508;2022-12-11T06:38:45;443.43;;;243.03;;
37633;SDS011;32048;49.902;22.508;2022-12-11T06:41:13;170.27;;;98.10;;
37633;SDS011;32048;49.902;22.508;2022-12-11T06:43:41;36.70;;;28.90;;
37633;SDS011;32048;49.902;22.508;2022-12-11T06:46:10;28.80;;;20.63;;
37633;SDS011;32048;49.902;22.508;2022-12-11T06:48:39;34.67;;;18.40;;
37633;SDS011;32048;49.902;22.508;2022-12-11T06:51:08;38.53;;;27.80;;
37633;SDS011;32048;49.902;22.508;2022-12-11T06:53:38;53.60;;;36.80;;
37633;SDS011;32048;49.902;22.508;2022-12-11T06:56:10;35.50;;;25.27;;
37633;SDS011;32048;49.902;22.508;2022-12-11T06:58:39;21.10;;;14.43;;
37633;SDS011;32048;49.902;22.508;2022-12-11T07:01:14;35.72;;;19.98;;
37633;SDS011;32048;49.902;22.508;2022-12-11T07:03:53;116.60;;;56.97;;
37633;SDS011;32048;49.902;22.508;2022-12-11T07:06:21;320.23;;;124.80;;
37633;SDS011;32048;49.902;22.508;2022-12-11T07:08:48;576.90;;;212.80;;
37633;SDS011;32048;49.902;22.508;2022-12-11T07:11:16;577.33;;;275.50;;
37633;SDS011;32048;49.902;22.508;2022-12-11T07:13:44;733.17;;;281.48;;
37633;SDS011;32048;49.902;22.508;2022-12-11T07:16:13;161.57;;;63.53;;
37633;SDS011;32048;49.902;22.508;2022-12-11T07:18:50;688.80;;;217.48;;
37633;SDS011;32048;49.902;22.508;2022-12-11T07:21:17;669.83;;;307.17;;
37633;SDS011;32048;49.902;22.508;2022-12-11T07:23:46;292.73;;;129.52;;
37633;SDS011;32048;49.902;22.508;2022-12-11T07:26:14;660.07;;;170.03;;
37633;SDS011;32048;49.902;22.508;2022-12-11T07:28:43;439.17;;;109.70;;
37633;SDS011;32048;49.902;22.508;2022-12-11T07:31:12;363.43;;;131.80;;
37633;SDS011;32048;49.902;22.508;2022-12-11T07:33:44;320.97;;;151.27;;
37633;SDS011;32048;49.902;22.508;2022-12-11T07:36:12;313.43;;;134.57;;
37633;SDS011;32048;49.902;22.508;2022-12-11T07:38:40;880.90;;;207.52;;
37633;SDS011;32048;49.902;22.508;2022-12-11T07:41:09;193.33;;;57.13;;
37633;SDS011;32048;49.902;22.508;2022-12-11T07:43:37;440.27;;;112.63;;
37633;SDS011;32048;49.902;22.508;2022-12-11T07:46:05;211.97;;;78.80;;
37633;SDS011;32048;49.902;22.508;2022-12-11T07:48:35;307.80;;;72.80;;
37633;SDS011;32048;49.902;22.508;2022-12-11T07:51:19;305.23;;;106.70;;
37633;SDS011;32048;49.902;22.508;2022-12-11T07:54:11;125.37;;;67.13;;
37633;SDS011;32048;49.902;22.508;2022-12-11T07:56:42;652.10;;;142.80;;
37633;SDS011;32048;49.902;22.508;2022-12-11T07:59:15;747.43;;;167.43;;
37633;SDS011;32048;49.902;22.508;2022-12-11T08:01:42;208.40;;;51.97;;
37633;SDS011;32048;49.902;22.508;2022-12-11T08:04:10;326.37;;;75.40;;
37633;SDS011;32048;49.902;22.508;2022-12-11T08:06:38;230.63;;;55.00;;
37633;SDS011;32048;49.902;22.508;2022-12-11T08:09:07;782.93;;;191.60;;
37633;SDS011;32048;49.902;22.508;2022-12-11T08:11:39;1039.03;;;372.80;;
37633;SDS011;32048;49.902;22.508;2022-12-11T08:14:06;77.83;;;54.13;;
37633;SDS011;32048;49.902;22.508;2022-12-11T10:40:26;28.57;;;14.97;;
37633;SDS011;32048;49.902;22.508;2022-12-11T10:42:56;23.77;;;10.73;;
37633;SDS011;32048;49.902;22.508;2022-12-11T10:45:23;38.23;;;16.80;;
37633;SDS011;32048;49.902;22.508;2022-12-11T10:48:00;66.80;;;24.70;;
37633;SDS011;32048;49.902;22.508;2022-12-11T10:50:32;92.63;;;36.07;;
37633;SDS011;32048;49.902;22.508;2022-12-11T10:52:59;52.57;;;20.97;;
37633;SDS011;32048;49.902;22.508;2022-12-11T10:55:27;49.30;;;18.83;;
37633;SDS011;32048;49.902;22.508;2022-12-11T10:58:02;325.57;;;104.67;;
37633;SDS011;32048;49.902;22.508;2022-12-11T11:00:38;79.37;;;30.93;;
37633;SDS011;32048;49.902;22.508;2022-12-11T11:03:33;47.57;;;17.53;;
37633;SDS011;32048;49.902;22.508;2022-12-11T11:06:03;78.73;;;28.13;;
37633;SDS011;32048;49.902;22.508;2022-12-11T11:08:45;219.00;;;90.73;;
37633;SDS011;32048;49.902;22.508;2022-12-11T11:11:24;126.07;;;56.20;;
37633;SDS011;32048;49.902;22.508;2022-12-11T11:16:46;75.00;;;30.77;;
37633;SDS011;32048;49.902;22.508;2022-12-11T11:19:17;158.97;;;70.60;;
37633;SDS011;32048;49.902;22.508;2022-12-11T11:21:51;157.93;;;62.40;;
37633;SDS011;32048;49.902;22.508;2022-12-11T11:24:27;61.87;;;29.17;;
37633;SDS011;32048;49.902;22.508;2022-12-11T11:30:00;49.33;;;24.60;;
37633;SDS011;32048;49.902;22.508;2022-12-11T11:32:37;54.13;;;28.57;;
37633;SDS011;32048;49.902;22.508;2022-12-11T11:37:39;100.17;;;38.03;;
37633;SDS011;32048;49.902;22.508;2022-12-11T11:43:03;44.93;;;19.70;;
37633;SDS011;32048;49.902;22.508;2022-12-11T11:45:55;35.40;;;16.00;;
37633;SDS011;32048;49.902;22.508;2022-12-11T11:50:48;41.63;;;16.13;;
37633;SDS011;32048;49.902;22.508;2022-12-11T11:53:18;28.57;;;13.97;;
37633;SDS011;32048;49.902;22.508;2022-12-11T11:56:02;54.80;;;24.47;;
37633;SDS011;32048;49.902;22.508;2022-12-11T12:01:18;86.23;;;39.93;;
37633;SDS011;32048;49.902;22.508;2022-12-11T12:03:46;32.33;;;15.63;;
37633;SDS011;32048;49.902;22.508;2022-12-11T12:06:18;38.97;;;18.92;;
37633;SDS011;32048;49.902;22.508;2022-12-11T12:12:12;27.33;;;13.80;;
37633;SDS011;32048;49.902;22.508;2022-12-11T12:14:24;124.13;;;34.80;;
37633;SDS011;32048;49.902;22.508;2022-12-11T12:17:30;107.07;;;34.60;;
37633;SDS011;32048;49.902;22.508;2022-12-11T12:22:59;119.17;;;68.07;;
37633;SDS011;32048;49.902;22.508;2022-12-11T12:25:38;40.57;;;24.07;;
37633;SDS011;32048;49.902;22.508;2022-12-11T12:31:04;25.10;;;15.10;;
37633;SDS011;32048;49.902;22.508;2022-12-11T12:44:42;351.17;;;173.10;;
37633;SDS011;32048;49.902;22.508;2022-12-11T12:47:25;34.20;;;19.63;;
37633;SDS011;32048;49.902;22.508;2022-12-11T12:49:56;23.70;;;13.27;;
37633;SDS011;32048;49.902;22.508;2022-12-11T12:54:55;43.27;;;16.10;;
37633;SDS011;32048;49.902;22.508;2022-12-11T12:57:41;77.13;;;25.10;;
37633;SDS011;32048;49.902;22.508;2022-12-11T13:00:10;57.80;;;21.03;;
37633;SDS011;32048;49.902;22.508;2022-12-11T13:02:48;44.70;;;22.20;;
37633;SDS011;32048;49.902;22.508;2022-12-11T13:05:20;28.23;;;15.50;;
37633;SDS011;32048;49.902;22.508;2022-12-11T13:08:00;59.23;;;32.17;;
37633;SDS011;32048;49.902;22.508;2022-12-11T13:10:34;27.73;;;14.23;;
37633;SDS011;32048;49.902;22.508;2022-12-11T13:13:03;44.50;;;17.93;;
37633;SDS011;32048;49.902;22.508;2022-12-11T13:18:02;28.48;;;15.32;;
37633;SDS011;32048;49.902;22.508;2022-12-11T13:20:33;64.90;;;31.80;;
37633;SDS011;32048;49.902;22.508;2022-12-11T13:28:25;37.10;;;17.17;;
37633;SDS011;32048;49.902;22.508;2022-12-11T13:30:59;38.00;;;17.13;;
37633;SDS011;32048;49.902;22.508;2022-12-11T13:33:26;34.03;;;16.27;;
37633;SDS011;32048;49.902;22.508;2022-12-11T13:36:16;40.23;;;20.10;;
37633;SDS011;32048;49.902;22.508;2022-12-11T13:38:54;150.87;;;37.07;;
37633;SDS011;32048;49.902;22.508;2022-12-11T13:41:25;260.57;;;69.57;;
37633;SDS011;32048;49.902;22.508;2022-12-11T13:43:54;113.45;;;55.97;;
37633;SDS011;32048;49.902;22.508;2022-12-11T13:46:25;36.57;;;19.10;;
37633;SDS011;32048;49.902;22.508;2022-12-11T14:15:21;30.63;;;16.13;;
37633;SDS011;32048;49.902;22.508;2022-12-11T14:17:48;37.23;;;17.93;;
37633;SDS011;32048;49.902;22.508;2022-12-11T14:20:21;52.60;;;26.08;;
37633;SDS011;32048;49.902;22.508;2022-12-11T14:22:50;27.53;;;14.70;;
37633;SDS011;32048;49.902;22.508;2022-12-11T14:25:24;63.67;;;25.23;;
37633;SDS011;32048;49.902;22.508;2022-12-11T14:27:54;56.90;;;22.47;;
37633;SDS011;32048;49.902;22.508;2022-12-11T14:30:23;74.40;;;31.90;;
37633;SDS011;32048;49.902;22.508;2022-12-11T14:32:53;38.20;;;21.93;;
37633;SDS011;32048;49.902;22.508;2022-12-11T14:35:24;26.33;;;12.20;;
37633;SDS011;32048;49.902;22.508;2022-12-11T14:37:57;36.17;;;18.93;;
37633;SDS011;32048;49.902;22.508;2022-12-11T14:40:30;39.00;;;15.70;;
37633;SDS011;32048;49.902;22.508;2022-12-11T14:43:07;36.37;;;18.30;;
37633;SDS011;32048;49.902;22.508;2022-12-11T14:45:38;38.03;;;17.20;;
37633;SDS011;32048;49.902;22.508;2022-12-11T14:48:11;35.30;;;17.70;;
37633;SDS011;32048;49.902;22.508;2022-12-11T14:50:50;30.47;;;14.33;;
37633;SDS011;32048;49.902;22.508;2022-12-11T14:53:26;30.07;;;13.60;;
37633;SDS011;32048;49.902;22.508;2022-12-11T14:56:00;27.20;;;13.83;;
37633;SDS011;32048;49.902;22.508;2022-12-11T14:58:30;26.97;;;14.03;;
37633;SDS011;32048;49.902;22.508;2022-12-11T15:01:04;25.00;;;12.63;;
37633;SDS011;32048;49.902;22.508;2022-12-11T15:06:44;33.85;;;15.27;;
37633;SDS011;32048;49.902;22.508;2022-12-11T15:09:17;20.77;;;10.80;;
37633;SDS011;32048;49.902;22.508;2022-12-11T15:11:51;27.63;;;12.97;;
37633;SDS011;32048;49.902;22.508;2022-12-11T15:14:20;29.37;;;14.27;;
37633;SDS011;32048;49.902;22.508;2022-12-11T15:16:49;28.38;;;12.27;;
37633;SDS011;32048;49.902;22.508;2022-12-11T15:19:26;26.13;;;12.87;;
37633;SDS011;32048;49.902;22.508;2022-12-11T15:22:01;23.55;;;12.60;;
37633;SDS011;32048;49.902;22.508;2022-12-11T15:24:37;37.67;;;16.27;;
37633;SDS011;32048;49.902;22.508;2022-12-11T15:30:24;30.53;;;15.03;;
37633;SDS011;32048;49.902;22.508;2022-12-11T15:35:38;23.50;;;12.00;;
37633;SDS011;32048;49.902;22.508;2022-12-11T15:38:05;29.77;;;12.82;;
37633;SDS011;32048;49.902;22.508;2022-12-11T15:40:51;28.47;;;12.67;;
37633;SDS011;32048;49.902;22.508;2022-12-11T15:43:17;26.67;;;12.30;;
37633;SDS011;32048;49.902;22.508;2022-12-11T15:45:45;25.87;;;13.30;;
37633;SDS011;32048;49.902;22.508;2022-12-11T15:48:12;25.77;;;11.70;;
37633;SDS011;32048;49.902;22.508;2022-12-11T15:50:39;27.40;;;13.67;;
37633;SDS011;32048;49.902;22.508;2022-12-11T15:53:06;21.80;;;11.03;;
37633;SDS011;32048;49.902;22.508;2022-12-11T15:55:33;23.47;;;11.43;;
37633;SDS011;32048;49.902;22.508;2022-12-11T15:58:00;25.63;;;13.73;;
37633;SDS011;32048;49.902;22.508;2022-12-11T16:00:31;33.10;;;15.90;;
37633;SDS011;32048;49.902;22.508;2022-12-11T16:02:58;39.60;;;19.60;;
37633;SDS011;32048;49.902;22.508;2022-12-11T16:05:26;24.50;;;13.47;;
37633;SDS011;32048;49.902;22.508;2022-12-11T16:07:54;40.13;;;20.10;;
37633;SDS011;32048;49.902;22.508;2022-12-11T16:10:25;28.60;;;14.40;;
37633;SDS011;32048;49.902;22.508;2022-12-11T16:12:52;23.77;;;11.93;;
37633;SDS011;32048;49.902;22.508;2022-12-11T16:15:25;25.63;;;13.40;;
37633;SDS011;32048;49.902;22.508;2022-12-11T16:17:59;25.57;;;13.50;;
37633;SDS011;32048;49.902;22.508;2022-12-11T16:20:26;28.17;;;13.80;;
37633;SDS011;32048;49.902;22.508;2022-12-11T16:22:54;26.57;;;13.03;;
37633;SDS011;32048;49.902;22.508;2022-12-11T16:25:21;24.07;;;12.43;;
37633;SDS011;32048;49.902;22.508;2022-12-11T16:27:48;22.77;;;11.73;;
37633;SDS011;32048;49.902;22.508;2022-12-11T16:30:15;24.40;;;13.30;;
37633;SDS011;32048;49.902;22.508;2022-12-11T16:32:42;23.30;;;10.53;;
37633;SDS011;32048;49.902;22.508;2022-12-11T16:35:09;23.23;;;10.67;;
37633;SDS011;32048;49.902;22.508;2022-12-11T16:37:37;25.60;;;11.90;;
37633;SDS011;32048;49.902;22.508;2022-12-11T16:40:04;24.93;;;12.00;;
37633;SDS011;32048;49.902;22.508;2022-12-11T16:42:32;24.83;;;12.53;;
37633;SDS011;32048;49.902;22.508;2022-12-11T16:45:07;25.97;;;11.10;;
37633;SDS011;32048;49.902;22.508;2022-12-11T16:47:38;21.35;;;11.45;;
37633;SDS011;32048;49.902;22.508;2022-12-11T16:50:08;21.47;;;11.50;;
37633;SDS011;32048;49.902;22.508;2022-12-11T16:52:36;16.60;;;8.33;;
37633;SDS011;32048;49.902;22.508;2022-12-11T16:55:03;23.80;;;11.53;;
37633;SDS011;32048;49.902;22.508;2022-12-11T16:57:30;23.67;;;11.70;;
37633;SDS011;32048;49.902;22.508;2022-12-11T16:59:58;27.00;;;12.50;;
37633;SDS011;32048;49.902;22.508;2022-12-11T17:02:25;23.00;;;10.43;;
37633;SDS011;32048;49.902;22.508;2022-12-11T17:04:52;22.93;;;12.83;;
37633;SDS011;32048;49.902;22.508;2022-12-11T17:07:19;21.50;;;12.00;;
37633;SDS011;32048;49.902;22.508;2022-12-11T17:09:46;23.30;;;12.17;;
37633;SDS011;32048;49.902;22.508;2022-12-11T17:12:13;25.30;;;12.53;;
37633;SDS011;32048;49.902;22.508;2022-12-11T17:14:40;25.53;;;12.27;;
37633;SDS011;32048;49.902;22.508;2022-12-11T17:17:07;25.87;;;12.23;;
37633;SDS011;32048;49.902;22.508;2022-12-11T17:19:34;22.00;;;11.10;;
37633;SDS011;32048;49.902;22.508;2022-12-11T17:22:02;20.67;;;10.40;;
37633;SDS011;32048;49.902;22.508;2022-12-11T17:24:30;22.98;;;11.60;;
37633;SDS011;32048;49.902;22.508;2022-12-11T17:26:57;25.10;;;12.17;;
37633;SDS011;32048;49.902;22.508;2022-12-11T17:29:25;25.55;;;13.05;;
37633;SDS011;32048;49.902;22.508;2022-12-11T17:31:52;24.23;;;12.00;;
37633;SDS011;32048;49.902;22.508;2022-12-11T17:34:19;26.27;;;12.33;;
37633;SDS011;32048;49.902;22.508;2022-12-11T17:36:46;25.40;;;12.07;;
37633;SDS011;32048;49.902;22.508;2022-12-11T17:39:13;23.43;;;10.70;;
37633;SDS011;32048;49.902;22.508;2022-12-11T17:41:40;23.10;;;12.17;;
37633;SDS011;32048;49.902;22.508;2022-12-11T17:44:07;26.10;;;13.40;;
37633;SDS011;32048;49.902;22.508;2022-12-11T17:46:35;25.23;;;12.07;;
37633;SDS011;32048;49.902;22.508;2022-12-11T17:49:03;24.43;;;12.30;;
37633;SDS011;32048;49.902;22.508;2022-12-11T17:51:30;25.30;;;12.63;;
37633;SDS011;32048;49.902;22.508;2022-12-11T17:53:57;24.10;;;12.60;;
37633;SDS011;32048;49.902;22.508;2022-12-11T17:56:24;31.50;;;15.20;;
37633;SDS011;32048;49.902;22.508;2022-12-11T17:58:52;32.97;;;15.90;;
37633;SDS011;32048;49.902;22.508;2022-12-11T18:01:19;26.33;;;13.30;;
37633;SDS011;32048;49.902;22.508;2022-12-11T18:03:47;27.70;;;15.33;;
37633;SDS011;32048;49.902;22.508;2022-12-11T18:06:14;29.03;;;14.03;;
37633;SDS011;32048;49.902;22.508;2022-12-11T18:08:42;29.98;;;16.33;;
37633;SDS011;32048;49.902;22.508;2022-12-11T18:11:12;29.15;;;14.55;;
37633;SDS011;32048;49.902;22.508;2022-12-11T18:13:42;57.43;;;28.97;;
37633;SDS011;32048;49.902;22.508;2022-12-11T18:16:11;66.95;;;30.60;;
37633;SDS011;32048;49.902;22.508;2022-12-11T18:21:06;36.07;;;20.50;;
37633;SDS011;32048;49.902;22.508;2022-12-11T18:23:33;34.03;;;19.77;;
37633;SDS011;32048;49.902;22.508;2022-12-11T18:26:00;29.60;;;16.80;;
37633;SDS011;32048;49.902;22.508;2022-12-11T18:28:27;31.60;;;14.60;;
37633;SDS011;32048;49.902;22.508;2022-12-11T18:31:00;28.57;;;16.10;;
37633;SDS011;32048;49.902;22.508;2022-12-11T18:33:28;27.83;;;15.50;;
37633;SDS011;32048;49.902;22.508;2022-12-11T18:35:56;31.45;;;15.95;;
37633;SDS011;32048;49.902;22.508;2022-12-11T18:38:23;27.23;;;14.97;;
37633;SDS011;32048;49.902;22.508;2022-12-11T18:40:50;36.83;;;16.27;;
37633;SDS011;32048;49.902;22.508;2022-12-11T18:43:17;30.50;;;15.20;;
37633;SDS011;32048;49.902;22.508;2022-12-11T18:45:44;35.60;;;17.70;;
37633;SDS011;32048;49.902;22.508;2022-12-11T18:48:12;37.00;;;17.47;;
37633;SDS011;32048;49.902;22.508;2022-12-11T18:50:46;48.22;;;23.05;;